KCKZ

Pennridge Airport

Perkasie, Pennsylvania, USA
METAR KCKZ 171635Z AUTO 22005KT 10SM CLR 29/25 A3006 RMK AO2
Observed Flight Rules
Aug-17 @ 16:35 UTC (18 minutes ago) Visual Flight Rules
Wind Visibility Clouds
220° at 5 knots 10 miles
  • Clear skies
Temperatures Readings
Current 29°C / 84°F
Dewpoint 25°C / 77°F
Humidity 79%
Altimeter 30.06" Hg
Pressure 1018 hPa
Elevation 173
METAR KCKZ 171635Z AUTO 22005KT 10SM CLR 29/25 A3006 RMK AO2
Observed Flight Rules
Aug-17 @ 16:35 UTC
(18 minutes ago)
VFR
Wind Visibility
220° at 5 knots 10 miles
Clouds
  • Clear skies
Temperature Dewpoint
29°C / 84°F 25°C / 77°F
Humidity Altimeter Pressure
79% 30.06" Hg 1018 hPa